sensor_id;sensor_type;location;lat;lon;timestamp;pressure;altitude;pressure_sealevel;temperature;humidity
74921;BME280;63483;47.384;8.860;2023-09-18T00:00:43;94177.00;;;17.05;48.04
74921;BME280;63483;47.384;8.860;2023-09-18T00:03:09;94176.91;;;17.12;47.70
74921;BME280;63483;47.384;8.860;2023-09-18T00:05:34;94171.59;;;17.12;47.76
74921;BME280;63483;47.384;8.860;2023-09-18T00:08:00;94155.25;;;17.15;47.50
74921;BME280;63483;47.384;8.860;2023-09-18T00:10:28;94160.44;;;17.10;47.81
74921;BME280;63483;47.384;8.860;2023-09-18T00:12:55;94155.72;;;17.12;47.88
74921;BME280;63483;47.384;8.860;2023-09-18T00:15:21;94146.75;;;17.13;47.82
74921;BME280;63483;47.384;8.860;2023-09-18T00:17:46;94153.19;;;17.17;47.59
74921;BME280;63483;47.384;8.860;2023-09-18T00:20:11;94145.78;;;17.19;47.61
74921;BME280;63483;47.384;8.860;2023-09-18T00:22:37;94148.00;;;17.22;47.75
74921;BME280;63483;47.384;8.860;2023-09-18T00:25:02;94158.59;;;17.22;47.26
74921;BME280;63483;47.384;8.860;2023-09-18T00:27:28;94172.25;;;17.19;47.21
74921;BME280;63483;47.384;8.860;2023-09-18T00:29:53;94174.34;;;17.17;47.28
74921;BME280;63483;47.384;8.860;2023-09-18T00:32:19;94191.84;;;17.18;47.23
74921;BME280;63483;47.384;8.860;2023-09-18T00:34:44;94181.38;;;17.11;47.32
74921;BME280;63483;47.384;8.860;2023-09-18T00:37:09;94181.59;;;17.10;47.10
74921;BME280;63483;47.384;8.860;2023-09-18T00:39:37;94185.63;;;17.00;47.11
74921;BME280;63483;47.384;8.860;2023-09-18T00:42:03;94180.81;;;16.97;48.03
74921;BME280;63483;47.384;8.860;2023-09-18T00:44:28;94179.88;;;16.80;48.43
74921;BME280;63483;47.384;8.860;2023-09-18T00:46:53;94169.97;;;16.40;49.48
74921;BME280;63483;47.384;8.860;2023-09-18T00:49:21;94175.25;;;16.63;49.09
74921;BME280;63483;47.384;8.860;2023-09-18T00:51:47;94176.66;;;16.54;49.06
74921;BME280;63483;47.384;8.860;2023-09-18T00:54:15;94163.28;;;16.49;48.71
74921;BME280;63483;47.384;8.860;2023-09-18T00:56:42;94163.97;;;16.32;49.57
74921;BME280;63483;47.384;8.860;2023-09-18T00:59:08;94156.84;;;16.45;49.37
74921;BME280;63483;47.384;8.860;2023-09-18T01:01:33;94137.69;;;16.49;48.54
74921;BME280;63483;47.384;8.860;2023-09-18T01:03:59;94135.16;;;16.55;48.56
74921;BME280;63483;47.384;8.860;2023-09-18T01:06:25;94142.84;;;16.56;48.16
74921;BME280;63483;47.384;8.860;2023-09-18T01:08:53;94140.34;;;16.61;48.26
74921;BME280;63483;47.384;8.860;2023-09-18T01:11:27;94134.59;;;16.64;48.00
74921;BME280;63483;47.384;8.860;2023-09-18T01:14:11;94136.19;;;16.65;47.90
74921;BME280;63483;47.384;8.860;2023-09-18T01:16:53;94120.09;;;16.67;48.25
74921;BME280;63483;47.384;8.860;2023-09-18T01:22:04;94094.94;;;16.64;47.78
74921;BME280;63483;47.384;8.860;2023-09-18T01:24:32;94093.53;;;16.62;47.52
74921;BME280;63483;47.384;8.860;2023-09-18T01:26:57;94086.41;;;16.62;47.81
74921;BME280;63483;47.384;8.860;2023-09-18T01:29:22;94081.72;;;16.64;47.44
74921;BME280;63483;47.384;8.860;2023-09-18T01:31:47;94084.34;;;16.64;47.60
74921;BME280;63483;47.384;8.860;2023-09-18T01:34:15;94081.72;;;16.64;46.73
74921;BME280;63483;47.384;8.860;2023-09-18T01:36:44;94075.28;;;16.60;47.28
74921;BME280;63483;47.384;8.860;2023-09-18T01:39:11;94071.00;;;16.59;47.50
74921;BME280;63483;47.384;8.860;2023-09-18T01:41:38;94066.75;;;16.58;47.30
74921;BME280;63483;47.384;8.860;2023-09-18T01:44:03;94061.47;;;16.58;47.26
74921;BME280;63483;47.384;8.860;2023-09-18T01:46:30;94071.47;;;16.56;47.61
74921;BME280;63483;47.384;8.860;2023-09-18T01:48:58;94077.78;;;16.55;47.30
74921;BME280;63483;47.384;8.860;2023-09-18T01:51:24;94070.91;;;16.54;47.65
74921;BME280;63483;47.384;8.860;2023-09-18T01:53:49;94066.09;;;16.51;47.25
74921;BME280;63483;47.384;8.860;2023-09-18T01:56:14;94084.00;;;16.49;47.18
74921;BME280;63483;47.384;8.860;2023-09-18T01:58:40;94073.44;;;16.49;47.38
74921;BME280;63483;47.384;8.860;2023-09-18T02:01:05;94072.63;;;16.48;47.66
74921;BME280;63483;47.384;8.860;2023-09-18T02:03:30;94086.53;;;16.44;46.75
74921;BME280;63483;47.384;8.860;2023-09-18T02:05:55;94093.88;;;16.42;47.18
74921;BME280;63483;47.384;8.860;2023-09-18T02:08:21;94089.66;;;16.41;47.29
74921;BME280;63483;47.384;8.860;2023-09-18T02:10:46;94076.94;;;16.07;48.54
74921;BME280;63483;47.384;8.860;2023-09-18T02:13:12;94077.31;;;16.11;48.10
74921;BME280;63483;47.384;8.860;2023-09-18T02:15:37;94083.75;;;16.15;47.70
74921;BME280;63483;47.384;8.860;2023-09-18T02:18:03;94089.03;;;16.15;47.81
74921;BME280;63483;47.384;8.860;2023-09-18T02:20:28;94091.22;;;16.18;48.09
74921;BME280;63483;47.384;8.860;2023-09-18T02:22:53;94085.72;;;16.20;48.05
74921;BME280;63483;47.384;8.860;2023-09-18T02:25:19;94081.47;;;16.19;48.03
74921;BME280;63483;47.384;8.860;2023-09-18T02:27:44;94090.19;;;16.19;47.57
74921;BME280;63483;47.384;8.860;2023-09-18T02:30:10;94093.88;;;16.18;47.65
74921;BME280;63483;47.384;8.860;2023-09-18T02:32:36;94099.94;;;16.07;47.90
74921;BME280;63483;47.384;8.860;2023-09-18T02:35:01;94103.38;;;16.07;48.21
74921;BME280;63483;47.384;8.860;2023-09-18T02:37:27;94115.34;;;16.10;48.31
74921;BME280;63483;47.384;8.860;2023-09-18T02:39:54;94127.31;;;16.12;48.14
74921;BME280;63483;47.384;8.860;2023-09-18T02:42:19;94128.09;;;16.13;48.14
74921;BME280;63483;47.384;8.860;2023-09-18T02:44:45;94140.28;;;16.14;48.44
74921;BME280;63483;47.384;8.860;2023-09-18T02:47:10;94135.00;;;16.14;48.05
74921;BME280;63483;47.384;8.860;2023-09-18T02:49:35;94169.34;;;16.14;47.83
74921;BME280;63483;47.384;8.860;2023-09-18T02:52:00;94178.88;;;16.15;47.82
74921;BME280;63483;47.384;8.860;2023-09-18T02:54:26;94181.72;;;16.13;47.69
74921;BME280;63483;47.384;8.860;2023-09-18T02:56:52;94197.25;;;16.10;47.66
74921;BME280;63483;47.384;8.860;2023-09-18T02:59:17;94214.69;;;16.11;47.66
74921;BME280;63483;47.384;8.860;2023-09-18T03:01:43;94222.75;;;16.16;47.83
74921;BME280;63483;47.384;8.860;2023-09-18T03:04:08;94230.69;;;16.16;47.74
74921;BME280;63483;47.384;8.860;2023-09-18T03:06:33;94235.16;;;16.15;47.96
74921;BME280;63483;47.384;8.860;2023-09-18T03:08:58;94229.06;;;16.15;48.13
74921;BME280;63483;47.384;8.860;2023-09-18T03:11:24;94226.41;;;16.15;47.91
74921;BME280;63483;47.384;8.860;2023-09-18T03:13:52;94230.69;;;16.16;48.24
74921;BME280;63483;47.384;8.860;2023-09-18T03:16:17;94230.34;;;16.12;47.82
74921;BME280;63483;47.384;8.860;2023-09-18T03:18:43;94237.44;;;16.12;48.02
74921;BME280;63483;47.384;8.860;2023-09-18T03:21:08;94249.22;;;16.09;48.32
74921;BME280;63483;47.384;8.860;2023-09-18T03:23:34;94253.13;;;16.07;47.68
74921;BME280;63483;47.384;8.860;2023-09-18T03:25:59;94246.09;;;16.01;47.69
74921;BME280;63483;47.384;8.860;2023-09-18T03:28:25;94247.69;;;16.02;48.48
74921;BME280;63483;47.384;8.860;2023-09-18T03:30:50;94254.16;;;15.87;48.68
74921;BME280;63483;47.384;8.860;2023-09-18T03:33:15;94253.16;;;15.88;48.53
74921;BME280;63483;47.384;8.860;2023-09-18T03:35:48;94252.34;;;15.88;48.60
74921;BME280;63483;47.384;8.860;2023-09-18T03:38:14;94244.66;;;15.86;47.88
74921;BME280;63483;47.384;8.860;2023-09-18T03:40:40;94261.97;;;15.82;47.68
74921;BME280;63483;47.384;8.860;2023-09-18T03:43:06;94261.84;;;15.77;47.85
74921;BME280;63483;47.384;8.860;2023-09-18T03:45:32;94257.81;;;15.74;48.60
74921;BME280;63483;47.384;8.860;2023-09-18T03:47:57;94260.38;;;15.62;48.62
74921;BME280;63483;47.384;8.860;2023-09-18T03:50:22;94264.75;;;15.69;48.91
74921;BME280;63483;47.384;8.860;2023-09-18T03:52:48;94269.69;;;15.65;48.86
74921;BME280;63483;47.384;8.860;2023-09-18T03:55:13;94271.66;;;15.70;48.65
74921;BME280;63483;47.384;8.860;2023-09-18T03:57:42;94267.19;;;15.70;48.76
74921;BME280;63483;47.384;8.860;2023-09-18T04:00:08;94265.22;;;15.66;48.95
74921;BME280;63483;47.384;8.860;2023-09-18T04:02:33;94263.31;;;15.54;50.35
74921;BME280;63483;47.384;8.860;2023-09-18T04:04:59;94271.50;;;15.65;51.29
74921;BME280;63483;47.384;8.860;2023-09-18T04:07:24;94280.44;;;15.82;50.98
74921;BME280;63483;47.384;8.860;2023-09-18T04:09:50;94276.63;;;15.96;50.95
74921;BME280;63483;47.384;8.860;2023-09-18T04:12:15;94258.38;;;15.95;51.58
74921;BME280;63483;47.384;8.860;2023-09-18T04:14:40;94267.94;;;16.08;51.06
74921;BME280;63483;47.384;8.860;2023-09-18T04:17:06;94260.97;;;16.13;50.36
74921;BME280;63483;47.384;8.860;2023-09-18T04:19:31;94254.78;;;16.20;50.23
74921;BME280;63483;47.384;8.860;2023-09-18T04:21:57;94247.69;;;16.20;49.81
74921;BME280;63483;47.384;8.860;2023-09-18T04:24:22;94249.06;;;16.23;49.67
74921;BME280;63483;47.384;8.860;2023-09-18T04:26:49;94253.31;;;16.24;49.29
74921;BME280;63483;47.384;8.860;2023-09-18T04:29:16;94254.72;;;16.26;49.56
74921;BME280;63483;47.384;8.860;2023-09-18T04:31:41;94266.91;;;16.27;49.41
74921;BME280;63483;47.384;8.860;2023-09-18T04:34:06;94265.28;;;16.26;49.44
74921;BME280;63483;47.384;8.860;2023-09-18T04:36:32;94258.38;;;16.25;49.47
74921;BME280;63483;47.384;8.860;2023-09-18T04:38:57;94257.59;;;16.25;49.28
74921;BME280;63483;47.384;8.860;2023-09-18T04:41:22;94262.06;;;16.24;49.47
74921;BME280;63483;47.384;8.860;2023-09-18T04:43:48;94263.66;;;16.25;49.51
74921;BME280;63483;47.384;8.860;2023-09-18T04:46:13;94271.03;;;16.23;49.78
74921;BME280;63483;47.384;8.860;2023-09-18T04:48:39;94270.00;;;16.24;49.86
74921;BME280;63483;47.384;8.860;2023-09-18T04:51:04;94261.03;;;16.25;49.96
74921;BME280;63483;47.384;8.860;2023-09-18T04:53:30;94268.16;;;16.25;49.18
74921;BME280;63483;47.384;8.860;2023-09-18T04:55:56;94264.13;;;16.22;49.53
74921;BME280;63483;47.384;8.860;2023-09-18T04:58:21;94269.41;;;16.22;49.55
74921;BME280;63483;47.384;8.860;2023-09-18T05:00:52;94274.91;;;16.21;49.45
74921;BME280;63483;47.384;8.860;2023-09-18T05:03:18;94284.09;;;16.18;49.91
74921;BME280;63483;47.384;8.860;2023-09-18T05:05:43;94296.28;;;16.19;49.70
74921;BME280;63483;47.384;8.860;2023-09-18T05:08:09;94296.28;;;16.19;49.70
74921;BME280;63483;47.384;8.860;2023-09-18T05:10:34;94283.63;;;16.21;49.82
74921;BME280;63483;47.384;8.860;2023-09-18T05:13:00;94288.91;;;16.21;50.00
74921;BME280;63483;47.384;8.860;2023-09-18T05:15:25;94286.50;;;16.20;49.90
74921;BME280;63483;47.384;8.860;2023-09-18T05:17:58;94277.56;;;16.21;49.95
74921;BME280;63483;47.384;8.860;2023-09-18T05:20:24;94274.13;;;16.20;50.51
74921;BME280;63483;47.384;8.860;2023-09-18T05:22:51;94272.66;;;16.24;50.19
74921;BME280;63483;47.384;8.860;2023-09-18T05:25:18;94254.72;;;16.26;50.02
74921;BME280;63483;47.384;8.860;2023-09-18T05:27:44;94251.84;;;16.28;50.10
74921;BME280;63483;47.384;8.860;2023-09-18T05:30:19;94253.47;;;16.29;50.23
74921;BME280;63483;47.384;8.860;2023-09-18T05:32:48;94248.97;;;16.29;50.20
74921;BME280;63483;47.384;8.860;2023-09-18T05:35:14;94252.66;;;16.28;50.00
74921;BME280;63483;47.384;8.860;2023-09-18T05:37:40;94250.00;;;16.28;50.26
74921;BME280;63483;47.384;8.860;2023-09-18T05:40:07;94256.91;;;16.29;50.51
74921;BME280;63483;47.384;8.860;2023-09-18T05:42:35;94260.00;;;16.26;50.72
74921;BME280;63483;47.384;8.860;2023-09-18T05:45:01;94250.47;;;16.25;50.46
74921;BME280;63483;47.384;8.860;2023-09-18T05:47:27;94241.16;;;16.35;50.37
74921;BME280;63483;47.384;8.860;2023-09-18T05:49:52;94245.44;;;16.36;50.80
74921;BME280;63483;47.384;8.860;2023-09-18T05:52:17;94223.28;;;16.37;50.52
74921;BME280;63483;47.384;8.860;2023-09-18T05:54:42;94223.50;;;16.35;51.13
74921;BME280;63483;47.384;8.860;2023-09-18T05:57:08;94235.47;;;16.38;50.62
74921;BME280;63483;47.384;8.860;2023-09-18T05:59:33;94224.44;;;16.41;50.81
74921;BME280;63483;47.384;8.860;2023-09-18T06:01:58;94228.66;;;16.42;50.63
74921;BME280;63483;47.384;8.860;2023-09-18T06:04:24;94226.03;;;16.42;51.18
74921;BME280;63483;47.384;8.860;2023-09-18T06:06:49;94231.69;;;16.45;51.23
74921;BME280;63483;47.384;8.860;2023-09-18T06:09:16;94227.56;;;16.49;50.78
74921;BME280;63483;47.384;8.860;2023-09-18T06:11:41;94229.53;;;16.54;50.50
74921;BME280;63483;47.384;8.860;2023-09-18T06:14:07;94246.97;;;16.55;50.69
74921;BME280;63483;47.384;8.860;2023-09-18T06:16:32;94248.34;;;16.58;50.83
74921;BME280;63483;47.384;8.860;2023-09-18T06:18:57;94242.84;;;16.59;50.82
74921;BME280;63483;47.384;8.860;2023-09-18T06:21:25;94248.72;;;16.61;50.60
74921;BME280;63483;47.384;8.860;2023-09-18T06:23:51;94259.63;;;16.65;50.93
74921;BME280;63483;47.384;8.860;2023-09-18T06:26:18;94261.50;;;16.64;51.26
74921;BME280;63483;47.384;8.860;2023-09-18T06:28:43;94261.50;;;16.64;50.80
74921;BME280;63483;47.384;8.860;2023-09-18T06:31:09;94261.03;;;16.67;50.74
74921;BME280;63483;47.384;8.860;2023-09-18T06:33:34;94260.56;;;16.71;50.68
74921;BME280;63483;47.384;8.860;2023-09-18T06:35:59;94266.44;;;16.73;51.18
74921;BME280;63483;47.384;8.860;2023-09-18T06:38:25;94263.31;;;16.76;51.18
74921;BME280;63483;47.384;8.860;2023-09-18T06:40:50;94275.06;;;16.80;51.27
74921;BME280;63483;47.384;8.860;2023-09-18T06:43:16;94274.59;;;16.83;51.72
74921;BME280;63483;47.384;8.860;2023-09-18T06:45:42;94283.97;;;16.85;51.32
74921;BME280;63483;47.384;8.860;2023-09-18T06:48:07;94294.88;;;16.89;51.82
74921;BME280;63483;47.384;8.860;2023-09-18T06:50:32;94301.56;;;16.92;51.72
74921;BME280;63483;47.384;8.860;2023-09-18T06:52:58;94305.38;;;16.96;51.54
74921;BME280;63483;47.384;8.860;2023-09-18T06:55:23;94308.13;;;17.01;51.84
74921;BME280;63483;47.384;8.860;2023-09-18T06:57:49;94318.47;;;17.02;51.43
74921;BME280;63483;47.384;8.860;2023-09-18T07:00:17;94324.38;;;17.05;52.04
74921;BME280;63483;47.384;8.860;2023-09-18T07:02:46;94341.41;;;17.09;51.60
74921;BME280;63483;47.384;8.860;2023-09-18T07:05:11;94337.25;;;17.13;51.64
74921;BME280;63483;47.384;8.860;2023-09-18T07:07:36;94345.78;;;17.15;52.28
74921;BME280;63483;47.384;8.860;2023-09-18T07:10:02;94346.91;;;17.19;52.15
74921;BME280;63483;47.384;8.860;2023-09-18T07:12:27;94360.28;;;17.24;51.95
74921;BME280;63483;47.384;8.860;2023-09-18T07:14:53;94353.50;;;17.28;52.32
74921;BME280;63483;47.384;8.860;2023-09-18T07:17:18;94359.09;;;17.20;52.05
74921;BME280;63483;47.384;8.860;2023-09-18T07:19:43;94372.34;;;17.32;51.52
74921;BME280;63483;47.384;8.860;2023-09-18T07:22:09;94385.34;;;17.33;51.49
74921;BME280;63483;47.384;8.860;2023-09-18T07:24:34;94371.09;;;17.34;51.71
74921;BME280;63483;47.384;8.860;2023-09-18T07:26:59;94383.31;;;17.35;51.61
74921;BME280;63483;47.384;8.860;2023-09-18T07:29:25;94381.56;;;17.41;51.56
74921;BME280;63483;47.384;8.860;2023-09-18T07:31:51;94379.06;;;17.46;51.60
74921;BME280;63483;47.384;8.860;2023-09-18T07:34:17;94374.56;;;17.47;51.59
74921;BME280;63483;47.384;8.860;2023-09-18T07:36:45;94376.03;;;17.43;51.36
74921;BME280;63483;47.384;8.860;2023-09-18T07:39:10;94386.75;;;17.36;51.82
74921;BME280;63483;47.384;8.860;2023-09-18T07:41:39;94395.03;;;17.40;51.82
74921;BME280;63483;47.384;8.860;2023-09-18T07:44:04;94397.09;;;17.37;52.22
74921;BME280;63483;47.384;8.860;2023-09-18T07:46:30;94397.44;;;17.41;51.86
74921;BME280;63483;47.384;8.860;2023-09-18T07:48:55;94386.63;;;17.43;51.84
74921;BME280;63483;47.384;8.860;2023-09-18T07:51:20;94391.34;;;17.41;51.70
74921;BME280;63483;47.384;8.860;2023-09-18T07:53:46;94396.28;;;17.25;51.95
74921;BME280;63483;47.384;8.860;2023-09-18T07:56:11;94395.94;;;17.33;51.71
74921;BME280;63483;47.384;8.860;2023-09-18T07:58:37;94399.19;;;17.35;51.63
74921;BME280;63483;47.384;8.860;2023-09-18T08:01:04;94411.38;;;17.36;51.86
74921;BME280;63483;47.384;8.860;2023-09-18T08:03:31;94422.56;;;17.38;52.57
74921;BME280;63483;47.384;8.860;2023-09-18T08:05:56;94425.19;;;17.38;51.64
74921;BME280;63483;47.384;8.860;2023-09-18T08:08:22;94434.63;;;17.34;52.01
74921;BME280;63483;47.384;8.860;2023-09-18T08:10:49;94436.25;;;17.35;51.38
74921;BME280;63483;47.384;8.860;2023-09-18T08:13:15;94431.50;;;17.26;52.13
74921;BME280;63483;47.384;8.860;2023-09-18T08:15:40;94438.41;;;17.27;52.01
74921;BME280;63483;47.384;8.860;2023-09-18T08:18:06;94436.44;;;17.22;52.03
74921;BME280;63483;47.384;8.860;2023-09-18T08:20:31;94441.28;;;17.25;52.42
74921;BME280;63483;47.384;8.860;2023-09-18T08:22:58;94429.53;;;17.21;52.45
74921;BME280;63483;47.384;8.860;2023-09-18T08:25:26;94435.16;;;17.25;52.62
74921;BME280;63483;47.384;8.860;2023-09-18T08:27:51;94448.97;;;17.15;52.93
74921;BME280;63483;47.384;8.860;2023-09-18T08:30:17;94457.00;;;17.08;52.17
74921;BME280;63483;47.384;8.860;2023-09-18T08:32:46;94465.03;;;17.01;52.10
74921;BME280;63483;47.384;8.860;2023-09-18T08:35:12;94471.34;;;17.00;52.06
74921;BME280;63483;47.384;8.860;2023-09-18T08:37:37;94468.13;;;16.98;51.53
74921;BME280;63483;47.384;8.860;2023-09-18T08:40:03;94472.13;;;17.01;50.76
74921;BME280;63483;47.384;8.860;2023-09-18T08:42:36;94473.53;;;17.03;51.64
74921;BME280;63483;47.384;8.860;2023-09-18T08:45:07;94479.41;;;17.06;51.63
74921;BME280;63483;47.384;8.860;2023-09-18T08:47:34;94478.34;;;16.95;51.95
74921;BME280;63483;47.384;8.860;2023-09-18T08:50:00;94468.94;;;16.99;51.75
74921;BME280;63483;47.384;8.860;2023-09-18T08:52:27;94472.59;;;16.98;51.74
74921;BME280;63483;47.384;8.860;2023-09-18T08:54:54;94479.28;;;17.00;52.22
74921;BME280;63483;47.384;8.860;2023-09-18T08:57:20;94475.91;;;16.93;52.63
74921;BME280;63483;47.384;8.860;2023-09-18T08:59:48;94482.00;;;16.94;52.43
74921;BME280;63483;47.384;8.860;2023-09-18T09:02:13;94488.56;;;16.91;52.89
74921;BME280;63483;47.384;8.860;2023-09-18T09:04:39;94499.16;;;16.91;52.70
74921;BME280;63483;47.384;8.860;2023-09-18T09:07:05;94492.69;;;16.87;53.00
74921;BME280;63483;47.384;8.860;2023-09-18T09:09:30;94489.94;;;16.75;52.79
74921;BME280;63483;47.384;8.860;2023-09-18T09:11:56;94482.25;;;16.74;52.93
74921;BME280;63483;47.384;8.860;2023-09-18T09:14:21;94494.72;;;16.66;52.77
74921;BME280;63483;47.384;8.860;2023-09-18T09:16:53;94504.28;;;16.67;52.12
74921;BME280;63483;47.384;8.860;2023-09-18T09:19:28;94499.00;;;16.67;52.36
74921;BME280;63483;47.384;8.860;2023-09-18T09:21:55;94504.84;;;16.70;52.24
74921;BME280;63483;47.384;8.860;2023-09-18T09:24:43;94507.81;;;16.61;51.65
74921;BME280;63483;47.384;8.860;2023-09-18T09:27:10;94516.78;;;16.60;52.17
74921;BME280;63483;47.384;8.860;2023-09-18T09:29:36;94519.41;;;16.60;52.07
74921;BME280;63483;47.384;8.860;2023-09-18T09:32:18;94532.63;;;16.60;52.55
74921;BME280;63483;47.384;8.860;2023-09-18T09:34:45;94528.81;;;16.56;52.60
74921;BME280;63483;47.384;8.860;2023-09-18T09:37:11;94529.25;;;16.53;52.52
74921;BME280;63483;47.384;8.860;2023-09-18T09:40:06;94521.97;;;16.48;52.35
74921;BME280;63483;47.384;8.860;2023-09-18T09:42:39;94522.22;;;16.47;52.11
74921;BME280;63483;47.384;8.860;2023-09-18T09:45:12;94520.75;;;16.51;52.39
74921;BME280;63483;47.384;8.860;2023-09-18T09:47:38;94515.91;;;16.48;52.87
74921;BME280;63483;47.384;8.860;2023-09-18T09:50:12;94515.47;;;16.51;52.84
74921;BME280;63483;47.384;8.860;2023-09-18T09:52:49;94503.31;;;16.43;52.41
74921;BME280;63483;47.384;8.860;2023-09-18T09:55:31;94514.72;;;16.44;53.10
74921;BME280;63483;47.384;8.860;2023-09-18T09:58:04;94527.72;;;16.45;53.14
74921;BME280;63483;47.384;8.860;2023-09-18T10:00:47;94524.09;;;16.40;52.88
74921;BME280;63483;47.384;8.860;2023-09-18T10:03:20;94520.44;;;16.41;52.87
74921;BME280;63483;47.384;8.860;2023-09-18T10:05:47;94521.72;;;16.31;53.21
74921;BME280;63483;47.384;8.860;2023-09-18T10:08:21;94519.31;;;16.11;53.16
74921;BME280;63483;47.384;8.860;2023-09-18T10:10:55;94526.72;;;16.21;53.51
74921;BME280;63483;47.384;8.860;2023-09-18T10:13:32;94527.91;;;16.25;53.51
74921;BME280;63483;47.384;8.860;2023-09-18T10:15:59;94539.66;;;16.29;53.43
74921;BME280;63483;47.384;8.860;2023-09-18T10:21:27;94532.47;;;16.37;53.08
74921;BME280;63483;47.384;8.860;2023-09-18T10:24:14;94531.03;;;16.41;53.03
74921;BME280;63483;47.384;8.860;2023-09-18T10:26:56;94534.31;;;16.36;53.01
74921;BME280;63483;47.384;8.860;2023-09-18T10:29:23;94537.53;;;16.38;53.50
74921;BME280;63483;47.384;8.860;2023-09-18T10:31:53;94527.53;;;16.40;52.49
74921;BME280;63483;47.384;8.860;2023-09-18T10:34:20;94522.47;;;16.39;52.81
74921;BME280;63483;47.384;8.860;2023-09-18T10:36:47;94534.50;;;16.35;52.80
74921;BME280;63483;47.384;8.860;2023-09-18T10:39:13;94531.03;;;16.41;52.84
74921;BME280;63483;47.384;8.860;2023-09-18T10:41:51;94539.38;;;16.38;52.35
74921;BME280;63483;47.384;8.860;2023-09-18T10:44:16;94547.00;;;16.27;52.80
74921;BME280;63483;47.384;8.860;2023-09-18T10:46:46;94544.16;;;16.29;52.81
74921;BME280;63483;47.384;8.860;2023-09-18T10:49:11;94543.00;;;16.18;52.44
74921;BME280;63483;47.384;8.860;2023-09-18T10:51:38;94537.72;;;16.18;52.94
74921;BME280;63483;47.384;8.860;2023-09-18T10:54:08;94539.06;;;16.27;53.21
74921;BME280;63483;47.384;8.860;2023-09-18T10:56:34;94533.94;;;16.32;52.78
74921;BME280;63483;47.384;8.860;2023-09-18T10:59:00;94537.03;;;16.48;53.32
74921;BME280;63483;47.384;8.860;2023-09-18T11:01:28;94533.22;;;16.44;52.68
74921;BME280;63483;47.384;8.860;2023-09-18T11:03:58;94526.31;;;16.43;54.00
74921;BME280;63483;47.384;8.860;2023-09-18T11:06:25;94520.44;;;16.59;52.75
74921;BME280;63483;47.384;8.860;2023-09-18T11:08:59;94505.19;;;16.61;52.22
74921;BME280;63483;47.384;8.860;2023-09-18T11:11:26;94492.53;;;16.63;51.60
74921;BME280;63483;47.384;8.860;2023-09-18T11:13:55;94471.09;;;16.72;52.23
74921;BME280;63483;47.384;8.860;2023-09-18T11:19:16;94462.59;;;16.81;51.66
74921;BME280;63483;47.384;8.860;2023-09-18T11:21:42;94456.53;;;16.81;51.78
74921;BME280;63483;47.384;8.860;2023-09-18T11:24:19;94453.72;;;16.76;51.41
74921;BME280;63483;47.384;8.860;2023-09-18T11:26:46;94458.66;;;16.91;51.33
74921;BME280;63483;47.384;8.860;2023-09-18T11:29:17;94450.25;;;16.94;50.84
74921;BME280;63483;47.384;8.860;2023-09-18T11:34:27;94440.63;;;16.99;50.95
74921;BME280;63483;47.384;8.860;2023-09-18T11:37:00;94438.31;;;16.73;50.56
74921;BME280;63483;47.384;8.860;2023-09-18T11:39:41;94432.56;;;16.94;50.70
74921;BME280;63483;47.384;8.860;2023-09-18T11:42:10;94419.22;;;17.01;50.45
74921;BME280;63483;47.384;8.860;2023-09-18T11:44:36;94412.31;;;16.88;49.38
74921;BME280;63483;47.384;8.860;2023-09-18T11:47:09;94416.94;;;16.93;50.02
74921;BME280;63483;47.384;8.860;2023-09-18T11:49:46;94405.78;;;17.02;49.70
74921;BME280;63483;47.384;8.860;2023-09-18T11:52:15;94389.59;;;17.11;49.71
74921;BME280;63483;47.384;8.860;2023-09-18T11:54:42;94404.53;;;17.05;49.17
74921;BME280;63483;47.384;8.860;2023-09-18T11:57:08;94413.97;;;17.13;49.88
74921;BME280;63483;47.384;8.860;2023-09-18T11:59:37;94404.91;;;17.20;50.33
74921;BME280;63483;47.384;8.860;2023-09-18T12:02:04;94412.75;;;17.27;50.04
74921;BME280;63483;47.384;8.860;2023-09-18T12:04:31;94409.78;;;17.35;49.87
74921;BME280;63483;47.384;8.860;2023-09-18T12:06:58;94410.44;;;17.43;50.43
74921;BME280;63483;47.384;8.860;2023-09-18T12:09:27;94407.94;;;17.48;50.64
74921;BME280;63483;47.384;8.860;2023-09-18T12:11:52;94413.81;;;17.50;50.49
74921;BME280;63483;47.384;8.860;2023-09-18T12:14:20;94408.63;;;17.55;49.73
74921;BME280;63483;47.384;8.860;2023-09-18T12:16:46;94406.34;;;17.59;50.71
74921;BME280;63483;47.384;8.860;2023-09-18T12:19:18;94387.13;;;17.63;50.39
74921;BME280;63483;47.384;8.860;2023-09-18T12:21:46;94378.72;;;17.66;50.45
74921;BME280;63483;47.384;8.860;2023-09-18T12:24:20;94364.91;;;17.64;50.75
74921;BME280;63483;47.384;8.860;2023-09-18T12:26:46;94374.47;;;17.65;50.90
74921;BME280;63483;47.384;8.860;2023-09-18T12:29:12;94356.75;;;17.66;50.62
74921;BME280;63483;47.384;8.860;2023-09-18T12:31:37;94340.84;;;17.66;51.20
74921;BME280;63483;47.384;8.860;2023-09-18T12:34:03;94349.03;;;17.64;50.61
74921;BME280;63483;47.384;8.860;2023-09-18T12:36:32;94344.63;;;17.58;50.43
74921;BME280;63483;47.384;8.860;2023-09-18T12:38:59;94355.22;;;17.58;49.60
74921;BME280;63483;47.384;8.860;2023-09-18T12:41:26;94370.69;;;17.61;50.13
74921;BME280;63483;47.384;8.860;2023-09-18T12:43:52;94374.34;;;17.60;50.15
74921;BME280;63483;47.384;8.860;2023-09-18T12:46:18;94370.91;;;17.60;50.30
74921;BME280;63483;47.384;8.860;2023-09-18T12:48:44;94368.47;;;17.58;49.83
74921;BME280;63483;47.384;8.860;2023-09-18T12:51:13;94377.91;;;17.54;49.34
74921;BME280;63483;47.384;8.860;2023-09-18T12:53:40;94382.72;;;17.57;49.73
74921;BME280;63483;47.384;8.860;2023-09-18T12:56:12;94390.66;;;17.57;49.45
74921;BME280;63483;47.384;8.860;2023-09-18T12:58:39;94392.75;;;17.55;48.89
74921;BME280;63483;47.384;8.860;2023-09-18T13:01:06;94380.78;;;17.52;48.08
74921;BME280;63483;47.384;8.860;2023-09-18T13:03:46;94368.22;;;17.48;49.43
74921;BME280;63483;47.384;8.860;2023-09-18T13:06:19;94361.22;;;17.42;47.83
74921;BME280;63483;47.384;8.860;2023-09-18T13:08:45;94363.97;;;17.47;47.60
74921;BME280;63483;47.384;8.860;2023-09-18T13:11:11;94360.75;;;17.45;49.34